createdAt,value
2018-12-24T00:00:41.564Z,98128.27
2018-12-24T00:03:10.611Z,98129.08
2018-12-24T00:05:40.279Z,98119.08
2018-12-24T00:08:09.615Z,98125.45
2018-12-24T00:10:45.736Z,98127.30
2018-12-24T00:13:14.366Z,98112.36
2018-12-24T00:15:44.224Z,98120.68
2018-12-24T00:18:13.565Z,98112.09
2018-12-24T00:21:08.464Z,98110.14
2018-12-24T00:23:37.762Z,98115.73
2018-12-24T00:26:21.691Z,98115.43
2018-12-24T00:29:00.021Z,98109.97
2018-12-24T00:31:29.983Z,98111.34
2018-12-24T00:34:02.955Z,98119.36
2018-12-24T00:36:33.339Z,98113.42
2018-12-24T00:39:19.702Z,98103.27
2018-12-24T00:41:53.125Z,98120.82
2018-12-24T00:44:21.786Z,98116.92
2018-12-24T00:46:59.358Z,98120.50
2018-12-24T00:49:29.050Z,98125.85
2018-12-24T00:51:57.526Z,98133.74
2018-12-24T00:54:25.955Z,98125.16
2018-12-24T00:56:54.903Z,98122.05
2018-12-24T00:59:23.753Z,98118.67
2018-12-24T01:01:52.005Z,98129.00
2018-12-24T01:04:20.334Z,98134.64
2018-12-24T01:06:48.834Z,98127.00
2018-12-24T01:09:17.233Z,98126.15
2018-12-24T01:11:45.895Z,98131.28
2018-12-24T01:14:14.859Z,98123.89
2018-12-24T01:16:42.941Z,98126.37
2018-12-24T01:19:11.747Z,98105.95
2018-12-24T01:21:40.212Z,98120.38
2018-12-24T01:24:08.571Z,98096.38
2018-12-24T01:26:37.270Z,98096.55
2018-12-24T01:29:06.059Z,98093.09
2018-12-24T01:31:34.761Z,98085.49
2018-12-24T01:34:02.770Z,98091.13
2018-12-24T01:36:31.084Z,98092.75
2018-12-24T01:38:59.504Z,98089.66
2018-12-24T01:41:27.936Z,98081.52
2018-12-24T01:43:56.088Z,98073.92
2018-12-24T01:46:24.514Z,98064.39
2018-12-24T01:48:52.588Z,98069.69
2018-12-24T01:51:20.788Z,98066.66
2018-12-24T01:53:49.223Z,98070.28
2018-12-24T01:56:17.598Z,98081.02
2018-12-24T01:58:45.806Z,98080.80
2018-12-24T02:01:14.179Z,98100.47
2018-12-24T02:03:42.962Z,98127.81
2018-12-24T02:06:11.930Z,98169.38
2018-12-24T02:08:39.972Z,98208.69
2018-12-24T02:11:08.393Z,98282.92
2018-12-24T02:13:36.741Z,98281.97
2018-12-24T02:16:04.789Z,98212.33
2018-12-24T02:18:33.229Z,98251.95
2018-12-24T02:21:01.291Z,98288.52
2018-12-24T02:23:29.771Z,98283.20
2018-12-24T02:25:58.169Z,98289.37
2018-12-24T02:28:26.831Z,98279.98
2018-12-24T02:30:55.036Z,98308.85
2018-12-24T02:33:23.392Z,98312.84
2018-12-24T02:35:52.686Z,98319.14
2018-12-24T02:38:20.739Z,98308.94
2018-12-24T02:40:48.758Z,98280.09
2018-12-24T02:43:17.344Z,98317.06
2018-12-24T02:45:45.667Z,98314.38
